Desmet, Idaho
Current Conditions -  °F | °C
As of 8:53 AM on Sunday 23 Nov 2014 (Local Time) from KPUW Reporting Station
Light Rain Light Rain  
Wind Chill: 31°   Ceiling: 2400
Heat Index: 40°   Visibility: 7mi
Dew Point: 34°   Wind: 16mph
Humidity: 79%   Direction: 230°SW
Pressure: 30.17"   Gusts: 24mph
Location:  47.15°N, 116.92°W
Report Text: KPUW 231653Z AUTO 23014G21KT 7SM -RA BKN024 OVC031 04/01 A3017 RMK AO2 RAB29 SLP231 P0001 T00440011
Loading
Personal Weather Stations






























Interactive Weather Map New forecast layout! Learn more

10-Day Weather Forecast

Advertisements
Track Severe Weather on mobile